Latest Weather Observations for Campbelltown

IDN60901

Issued at 7:01 pm EDT Tuesday 28 February 2017 (issued every 10 minutes, with the page automatically refreshed every 10 minutes)

About weather observations | Map of Sydney area stations | Latest observations for Sydney area | Other Formats
Station Details ID: 068257 Name: CAMPBELLTOWN (MOUNT ANNAN) Lat: -34.06 Lon: 150.77 Height: 112.0 m
Data from the previous 72 hours. | See also: Recent months at Campbelltown
Date/Time
EDT
Temp
°C
App
Temp
°C
Dew
Point
°C
Rel
Hum
%
Delta-T
°C
Wind Press
QNH
hPa
Press
MSL
hPa
Rain since
9am
mm
Dir  Spd
km/h
Gust
km/h
Spd
kts
Gust
kts
28/06:30pm 23.5 23.9 17.3 68 3.9 ESE 11 20 6 11 - - 5.4
28/06:00pm 23.6 23.6 17.1 67 4.0 ESE 13 20 7 11 - - 5.4
28/05:30pm 25.4 26.1 17.1 60 5.2 ENE 9 19 5 10 - - 5.4
28/05:00pm 25.7 25.4 17.4 60 5.2 ESE 15 22 8 12 - - 5.4
28/04:30pm 24.7 24.0 16.4 60 5.1 SE 15 24 8 13 - - 5.4
28/04:00pm 26.0 25.6 16.3 55 6.0 ENE 13 22 7 12 - - 5.4
28/03:30pm 24.5 24.4 17.0 63 4.7 ENE 13 24 7 13 - - 5.4
28/03:00pm 26.1 26.0 16.9 57 5.7 NE 13 20 7 11 - - 5.4
28/02:30pm 23.4 26.4 20.9 86 1.6 ESE 6 15 3 8 - - 5.4
28/02:11pm 21.2 20.8 17.2 78 2.5 NE 15 24 8 13 - - 4.6
28/02:00pm 26.3 26.3 17.1 57 5.8 ESE 13 22 7 12 - - 1.8
28/01:30pm 25.6 26.3 18.0 63 4.8 E 11 20 6 11 - - 1.8
28/01:00pm 24.5 25.6 18.9 71 3.6 SE 11 22 6 12 - - 1.8
28/12:30pm 21.8 22.3 18.4 81 2.1 ESE 13 24 7 13 - - 1.8
28/12:00pm 22.0 22.4 18.2 79 2.4 ESE 13 20 7 11 - - 1.4
28/11:30am 24.5 24.6 18.4 69 3.9 SE 15 22 8 12 - - 0.6
28/11:00am 24.6 26.7 19.4 73 3.3 SE 7 13 4 7 - - 0.6
28/10:30am 22.6 25.1 19.8 84 1.8 N 6 9 3 5 - - 0.6
28/10:00am 21.4 23.8 19.7 90 1.1 SSW 6 9 3 5 - - 0.2
28/09:30am 20.9 22.7 19.6 92 0.8 SSW 9 13 5 7 - - 0.0
28/09:00am 20.4 22.6 19.6 95 0.5 SSW 7 9 4 5 - - 4.4
28/08:30am 20.1 22.2 19.4 96 0.4 S 7 11 4 6 - - 4.4
28/08:00am 19.1 20.9 18.8 98 0.2 SSW 7 11 4 6 - - 4.0
28/07:30am 18.6 20.1 18.1 97 0.3 SSW 7 11 4 6 - - 2.0
28/07:00am 18.1 19.4 17.6 97 0.3 SSW 7 11 4 6 - - 2.0
28/06:30am 17.9 19.3 17.3 96 0.4 SSW 6 9 3 5 - - 2.0
28/06:00am 18.0 18.8 17.4 96 0.4 SSW 9 11 5 6 - - 2.0
28/05:30am 18.0 19.1 17.2 95 0.5 SSW 7 11 4 6 - - 2.0
28/05:00am 18.4 19.7 17.6 95 0.5 S 7 13 4 7 - - 1.8
28/04:30am 18.0 19.3 17.2 95 0.5 SSW 6 9 3 5 - - 1.8
28/04:00am 17.9 18.9 16.9 94 0.6 SSW 7 11 4 6 - - 1.8
28/03:30am 18.4 19.7 17.2 93 0.7 S 6 9 3 5 - - 1.8
28/03:00am 18.1 19.0 16.6 91 0.9 S 7 9 4 5 - - 0.0
28/02:30am 18.1 19.2 16.6 91 0.9 SSW 6 9 3 5 - - 0.0
28/02:00am 17.9 18.6 16.2 90 1.0 S 7 11 4 6 - - 0.0
28/01:30am 17.9 18.6 16.1 89 1.1 SSW 7 13 4 7 - - 0.0
28/01:00am 17.9 18.5 15.9 88 1.2 S 7 13 4 7 - - 0.0
28/12:30am 18.1 18.7 15.9 87 1.3 S 7 11 4 6 - - 0.0
28/12:00am 18.4 18.7 16.0 86 1.4 SSW 9 13 5 7 - - 0.0
 
Date/Time
EDT
Temp
°C
App
Temp
°C
Dew
Point
°C
Rel
Hum
%
Delta-T
°C
Wind Press
QNH
hPa
Press
MSL
hPa
Rain since
9am
mm
Dir  Spd
km/h
Gust
km/h
Spd
kts
Gust
kts
27/11:30pm 18.4 19.0 15.8 85 1.5 S 7 11 4 6 - - 0.0
27/11:00pm 18.9 18.8 16.0 83 1.7 SSW 11 19 6 10 - - 0.0
27/10:30pm 18.9 19.0 15.6 81 2.0 SSW 9 13 5 7 - - 0.0
27/10:00pm 19.7 20.3 15.8 78 2.3 S 7 17 4 9 - - 0.0
27/09:30pm 19.2 19.5 15.1 77 2.4 S 7 11 4 6 - - 0.0
27/09:00pm 19.4 19.7 14.9 75 2.6 S 7 13 4 7 - - 0.0
27/08:30pm 19.5 19.7 14.3 72 3.0 S 6 9 3 5 - - 0.0
27/08:00pm 20.2 20.2 14.1 68 3.5 S 7 17 4 9 - - 0.0
27/07:30pm 21.3 20.7 14.7 66 3.9 S 11 20 6 11 - - 0.0
27/07:00pm 23.1 22.3 14.1 57 5.3 S 11 20 6 11 - - 0.0
27/06:30pm 24.3 23.0 13.8 52 6.2 SSE 13 24 7 13 - - 0.0
27/06:00pm 25.1 24.0 13.0 47 7.1 S 11 19 6 10 - - 0.0
27/05:30pm 25.3 23.8 11.8 43 7.7 SSE 11 24 6 13 - - 0.0
27/05:00pm 25.8 24.7 13.0 45 7.5 SSE 11 20 6 11 - - 0.0
27/04:30pm 24.7 22.8 13.0 48 6.8 SE 15 28 8 15 - - 0.0
27/04:00pm 25.3 23.8 13.2 47 7.1 SE 13 26 7 14 - - 0.0
27/03:30pm 25.8 24.3 14.3 49 6.9 SSE 15 28 8 15 - - 0.0
27/03:00pm 26.1 25.2 14.9 50 6.8 SSE 13 26 7 14 - - 0.0
27/02:30pm 25.9 24.4 14.1 48 7.0 SE 15 26 8 14 - - 0.0
27/02:00pm 25.6 24.5 15.3 53 6.2 ESE 15 26 8 14 - - 0.0
27/01:30pm 25.6 24.6 14.7 51 6.6 ESE 13 22 7 12 - - 0.0
27/01:00pm 25.5 24.4 14.3 50 6.7 SE 13 24 7 13 - - 0.0
27/12:30pm 25.2 24.2 15.5 55 5.9 ESE 15 24 8 13 - - 0.0
27/12:00pm 24.1 22.4 14.8 56 5.6 ESE 17 28 9 15 - - 0.0
27/11:30am 25.3 25.3 16.2 57 5.6 ESE 11 22 6 12 - - 0.0
27/11:00am 23.9 24.0 15.4 59 5.1 ESE 9 17 5 9 - - 0.0
27/10:30am 23.4 23.5 15.5 61 4.8 SE 9 15 5 8 - - 0.0
27/10:00am 22.8 22.7 15.9 65 4.2 E 11 19 6 10 - - 0.0
27/09:30am 21.7 21.9 15.8 69 3.6 SSE 9 19 5 10 - - 0.0
27/09:00am 21.0 22.4 17.4 80 2.2 S 6 7 3 4 - - 3.6
27/08:30am 19.7 21.4 18.5 93 0.7 SSW 7 9 4 5 - - 3.6
27/08:00am 18.9 20.9 18.7 99 0.1 S 6 7 3 4 - - 3.6
27/07:30am 18.2 21.0 18.0 99 0.1 CALM 0 0 0 0 - - 3.6
27/07:00am 17.7 19.1 17.4 98 0.2 S 6 7 3 4 - - 3.6
27/06:30am 17.5 19.6 17.2 98 0.2 S 2 6 1 3 - - 3.6
27/06:00am 17.2 19.2 16.9 98 0.2 S 2 7 1 4 - - 3.6
27/05:30am 16.7 18.7 16.1 96 0.4 CALM 0 0 0 0 - - 3.4
27/05:00am 16.5 17.3 15.9 96 0.4 SSW 6 9 3 5 - - 3.4
27/04:30am 16.5 17.1 15.7 95 0.5 SSW 7 11 4 6 - - 3.4
27/04:00am 16.6 17.1 15.6 94 0.6 SSW 7 11 4 6 - - 3.2
27/03:30am 16.7 17.3 15.7 94 0.6 SSW 7 13 4 7 - - 3.2
27/03:00am 16.7 17.2 15.6 93 0.6 SSW 7 13 4 7 - - 3.0
27/02:30am 17.1 17.4 14.9 87 1.3 SSW 7 11 4 6 - - 0.8
27/02:00am 17.6 17.7 14.5 82 1.8 SSW 7 13 4 7 - - 0.0
27/01:30am 17.4 16.7 14.3 82 1.8 SSW 11 19 6 10 - - 0.0
27/01:00am 17.4 16.9 13.9 80 2.0 SSW 9 15 5 8 - - 0.0
27/12:30am 18.1 17.0 13.2 73 2.8 SSW 11 17 6 9 - - 0.0
27/12:00am 18.2 17.2 12.4 69 3.2 SSW 9 15 5 8 - - 0.0
 
Date/Time
EDT
Temp
°C
App
Temp
°C
Dew
Point
°C
Rel
Hum
%
Delta-T
°C
Wind Press
QNH
hPa
Press
MSL
hPa
Rain since
9am
mm
Dir  Spd
km/h
Gust
km/h
Spd
kts
Gust
kts
26/11:30pm 17.7 17.1 12.4 71 3.0 SSW 7 11 4 6 - - 0.0
26/11:00pm 18.4 17.6 11.7 65 3.7 SW 7 11 4 6 - - 0.0
26/10:30pm 18.5 17.9 11.6 64 3.8 SSW 6 9 3 5 - - 0.0
26/10:00pm 18.7 17.8 11.3 62 4.1 SSW 7 13 4 7 - - 0.0
26/09:30pm 19.0 18.2 11.6 62 4.1 SSW 7 13 4 7 - - 0.0
26/09:00pm 19.3 18.5 11.6 61 4.3 SSW 7 17 4 9 - - 0.0
26/08:30pm 19.2 18.1 12.0 63 4.0 S 9 17 5 9 - - 0.0
26/08:00pm 19.3 18.2 11.8 62 4.2 S 9 17 5 9 - - 0.0
26/07:30pm 19.8 18.1 11.3 58 4.7 S 11 20 6 11 - - 0.0
26/07:00pm 21.5 20.0 10.6 50 6.0 S 9 22 5 12 - - 0.0
26/06:30pm 23.0 20.8 10.8 46 6.8 SSE 13 24 7 13 - - 0.0
26/06:00pm 23.9 21.3 10.6 43 7.4 S 15 24 8 13 - - 0.0
26/05:30pm 24.4 22.0 9.9 40 8.0 SSE 13 24 7 13 - - 0.0
26/05:00pm 23.6 22.1 9.2 40 7.8 SSE 7 22 4 12 - - 0.0
26/04:30pm 24.7 22.7 11.6 44 7.4 SSE 13 24 7 13 - - 0.0
26/04:00pm 23.6 21.5 11.3 46 6.9 SSE 13 28 7 15 - - 0.0
26/03:30pm 23.5 21.5 11.5 47 6.8 S 13 24 7 13 - - 0.0
26/03:00pm 23.2 21.2 11.6 48 6.5 SSE 13 22 7 12 - - 0.0
26/02:30pm 23.7 21.8 13.0 51 6.2 S 15 26 8 14 - - 0.0
26/02:00pm 23.4 22.4 13.3 53 5.9 SSE 11 24 6 13 - - 0.0
26/01:30pm 23.3 22.0 13.8 55 5.6 S 13 24 7 13 - - 0.0
26/01:00pm 22.7 21.8 13.7 56 5.3 SE 11 20 6 11 - - 0.0
26/12:30pm 21.7 21.1 13.6 60 4.7 S 9 17 5 9 - - 0.0
26/12:00pm 21.5 20.8 13.2 59 4.8 S 9 17 5 9 - - 0.0
26/11:30am 21.3 20.8 13.7 62 4.4 SSE 9 15 5 8 - - 0.0
26/11:00am 20.4 20.8 15.2 72 3.1 S 7 11 4 6 - - 0.0
26/10:30am 20.9 20.5 14.1 65 4.0 S 9 19 5 10 - - 0.0
26/10:00am 21.3 20.4 13.7 62 4.4 SSE 11 19 6 10 - - 0.0
26/09:30am 20.7 20.7 15.3 71 3.2 S 9 15 5 8 - - 0.0
26/09:00am 19.7 19.4 15.4 76 2.6 SW 11 15 6 8 - - 32.0
26/08:30am 18.7 18.6 16.1 85 1.6 SSW 11 17 6 9 - - 32.0
26/08:00am 17.4 17.7 15.9 91 0.9 SSW 9 15 5 8 - - 32.0
26/07:30am 17.0 18.7 16.2 95 0.5 SSW 2 7 1 4 - - 32.0
26/07:00am 16.8 17.5 16.0 95 0.5 SSW 7 9 4 5 - - 32.0
26/06:30am 16.7 18.7 15.9 95 0.5 CALM 0 0 0 0 - - 32.0
26/06:00am 17.0 18.6 15.9 93 0.7 S 2 6 1 3 - - 32.0
26/05:30am 17.0 17.8 15.9 93 0.7 S 6 11 3 6 - - 32.0
26/05:00am 17.2 18.1 16.6 96 0.4 SSW 7 13 4 7 - - 31.8
26/04:30am 17.4 18.4 16.9 97 0.3 SSW 7 13 4 7 - - 31.4
26/04:00am 17.4 19.7 16.8 96 0.4 CALM 0 0 0 0 - - 31.2
26/03:30am 17.4 18.6 16.8 96 0.4 S 6 9 3 5 - - 29.8
26/03:00am 17.5 18.7 16.9 96 0.4 S 6 9 3 5 - - 26.0
26/02:30am 17.6 18.3 17.0 96 0.4 SSW 9 13 5 7 - - 22.4
26/02:00am 17.7 18.9 16.9 95 0.5 SSE 6 11 3 6 - - 17.4
26/01:30am 18.0 19.0 16.9 93 0.7 S 7 9 4 5 - - 5.0
26/01:00am 18.4 19.2 16.4 88 1.2 S 7 11 4 6 - - 0.0
26/12:30am 19.0 19.2 15.7 81 2.0 S 9 15 5 8 - - 0.0
26/12:00am 18.8 19.2 15.3 80 2.1 SSW 7 9 4 5 - - 0.0
 
Date/Time
EDT
Temp
°C
App
Temp
°C
Dew
Point
°C
Rel
Hum
%
Delta-T
°C
Wind Press
QNH
hPa
Press
MSL
hPa
Rain since
9am
mm
Dir  Spd
km/h
Gust
km/h
Spd
kts
Gust
kts
25/11:30pm 19.2 19.3 14.5 74 2.7 SSW 7 13 4 7 - - 0.0
25/11:00pm 19.3 19.3 14.1 72 3.0 SSW 7 13 4 7 - - 0.0
25/10:30pm 19.4 19.0 14.2 72 3.0 S 9 13 5 7 - - 0.0
25/10:00pm 19.3 18.9 14.1 72 3.0 SSW 9 15 5 8 - - 0.0
25/09:30pm 19.1 18.8 14.4 74 2.7 S 9 15 5 8 - - 0.0
25/09:00pm 19.1 18.7 14.1 73 2.9 S 9 15 5 8 - - 0.0
25/08:30pm 19.7 19.3 14.1 70 3.2 S 9 20 5 11 - - 0.0
25/08:00pm 20.0 19.6 14.1 69 3.4 S 9 17 5 9 - - 0.0
25/07:30pm 20.0 20.5 14.1 69 3.4 S 4 9 2 5 - - 0.0

Latest Capital City Observations: Canberra | Sydney | Melbourne | Brisbane | Adelaide | Perth | Hobart | Darwin

Other Formats:

Comma delimited format used in spreadsheet applications
http://www.bom.gov.au/fwo/IDN60901/IDN60901.94757.axf

JavaScript Object Notation format (JSON) in row-major order
http://www.bom.gov.au/fwo/IDN60901/IDN60901.94757.json